createdAt,value
2018-01-04T00:01:15.735Z,2.33
2018-01-04T00:03:44.970Z,1.77
2018-01-04T00:06:13.546Z,2.80
2018-01-04T00:08:41.759Z,1.93
2018-01-04T00:11:10.930Z,2.12
2018-01-04T00:13:41.058Z,2.00
2018-01-04T00:16:10.278Z,2.03
2018-01-04T00:18:38.957Z,1.70
2018-01-04T00:21:08.409Z,1.80
2018-01-04T00:23:36.827Z,2.00
2018-01-04T00:26:05.403Z,1.87
2018-01-04T00:28:34.197Z,1.80
2018-01-04T00:31:02.873Z,1.60
2018-01-04T00:33:32.467Z,1.90
2018-01-04T00:36:02.707Z,1.60
2018-01-04T00:38:32.791Z,1.93
2018-01-04T00:41:01.712Z,2.30
2018-01-04T00:43:30.854Z,2.57
2018-01-04T00:45:59.039Z,2.43
2018-01-04T00:48:27.733Z,3.60
2018-01-04T00:50:56.845Z,1.43
2018-01-04T00:53:25.655Z,2.23
2018-01-04T00:55:53.820Z,2.30
2018-01-04T00:58:22.785Z,1.47
2018-01-04T01:00:51.830Z,1.90
2018-01-04T01:03:20.716Z,2.00
2018-01-04T01:05:49.385Z,1.70
2018-01-04T01:08:19.636Z,1.83
2018-01-04T01:10:48.522Z,1.57
2018-01-04T01:13:17.261Z,1.40
2018-01-04T01:15:46.228Z,1.58
2018-01-04T01:18:14.784Z,1.12
2018-01-04T01:20:43.405Z,1.10
2018-01-04T01:23:12.292Z,1.13
2018-01-04T01:25:41.893Z,1.07
2018-01-04T01:28:11.968Z,1.30
2018-01-04T01:30:40.604Z,0.80
2018-01-04T01:33:09.082Z,0.63
2018-01-04T01:35:37.880Z,1.03
2018-01-04T01:38:06.580Z,0.87
2018-01-04T01:40:35.871Z,0.80
2018-01-04T01:43:04.539Z,0.57
2018-01-04T01:45:33.619Z,1.10
2018-01-04T01:48:02.309Z,1.27
2018-01-04T01:50:31.308Z,1.40
2018-01-04T01:53:00.894Z,1.43
2018-01-04T01:55:30.206Z,0.90
2018-01-04T01:57:58.393Z,1.13
2018-01-04T02:00:26.548Z,1.33
2018-01-04T02:02:55.569Z,1.33
2018-01-04T02:05:25.251Z,1.27
2018-01-04T02:07:54.165Z,1.17
2018-01-04T02:10:23.833Z,1.30
2018-01-04T02:12:52.736Z,1.10
2018-01-04T02:15:21.776Z,1.07
2018-01-04T02:17:50.726Z,1.30
2018-01-04T02:20:19.418Z,1.57
2018-01-04T02:22:49.211Z,1.10
2018-01-04T02:25:17.964Z,1.10
2018-01-04T02:27:46.136Z,1.20
2018-01-04T02:30:14.904Z,1.70
2018-01-04T02:32:43.765Z,0.97
2018-01-04T02:35:12.837Z,1.30
2018-01-04T02:37:42.052Z,1.40
2018-01-04T02:40:10.776Z,1.20
2018-01-04T02:42:40.758Z,1.23
2018-01-04T02:45:09.382Z,1.37
2018-01-04T02:47:38.147Z,1.27
2018-01-04T02:50:06.301Z,1.13
2018-01-04T02:52:35.350Z,1.10
2018-01-04T02:55:03.521Z,1.57
2018-01-04T02:57:32.273Z,0.97
2018-01-04T03:00:00.908Z,1.40
2018-01-04T03:02:31.008Z,2.07
2018-01-04T03:04:59.700Z,1.07
2018-01-04T03:07:28.537Z,1.33
2018-01-04T03:09:57.735Z,1.30
2018-01-04T03:12:26.443Z,1.00
2018-01-04T03:14:55.499Z,0.50
2018-01-04T03:17:23.786Z,0.60
2018-01-04T03:19:52.094Z,0.83
2018-01-04T03:22:22.304Z,1.62
2018-01-04T03:24:50.482Z,0.80
2018-01-04T03:27:19.034Z,0.70
2018-01-04T03:29:47.808Z,0.90
2018-01-04T03:32:16.271Z,0.83
2018-01-04T03:34:45.009Z,0.73
2018-01-04T03:37:14.512Z,0.80
2018-01-04T03:39:43.257Z,0.80
2018-01-04T03:42:11.894Z,0.70
2018-01-04T03:44:41.370Z,0.70
2018-01-04T03:47:10.716Z,1.12
2018-01-04T03:49:39.129Z,0.60
2018-01-04T03:52:07.384Z,0.82
2018-01-04T03:54:36.165Z,0.80
2018-01-04T03:57:05.230Z,1.23
2018-01-04T03:59:33.866Z,0.93
2018-01-04T04:02:01.881Z,0.70
2018-01-04T04:04:30.978Z,0.70
2018-01-04T04:06:59.427Z,0.70
2018-01-04T04:09:28.369Z,0.43
2018-01-04T04:11:56.729Z,0.40
2018-01-04T04:14:26.119Z,0.45
2018-01-04T04:16:54.655Z,0.70
2018-01-04T04:19:23.739Z,0.70
2018-01-04T04:21:52.273Z,0.60
2018-01-04T04:24:21.670Z,0.57
2018-01-04T04:26:51.224Z,0.67
2018-01-04T04:29:20.244Z,0.60
2018-01-04T04:31:48.696Z,0.60
2018-01-04T04:34:16.934Z,0.80
2018-01-04T04:36:46.634Z,0.80
2018-01-04T04:39:15.405Z,0.62
2018-01-04T04:41:43.611Z,0.70
2018-01-04T04:44:12.710Z,0.57
2018-01-04T04:46:41.584Z,0.75
2018-01-04T04:49:10.542Z,1.05
2018-01-04T04:51:39.086Z,0.57
2018-01-04T04:54:08.262Z,0.43
2018-01-04T04:56:37.352Z,0.55
2018-01-04T04:59:06.448Z,0.93
2018-01-04T05:01:35.033Z,0.60
2018-01-04T05:04:03.465Z,0.70
2018-01-04T05:06:32.090Z,0.70
2018-01-04T05:09:01.091Z,0.70
2018-01-04T05:11:29.691Z,0.50
2018-01-04T05:13:59.194Z,0.75
2018-01-04T05:16:28.623Z,0.70
2018-01-04T05:18:57.264Z,0.60
2018-01-04T05:21:25.853Z,0.60
2018-01-04T05:23:54.140Z,0.77
2018-01-04T05:26:22.352Z,0.50
2018-01-04T05:28:50.794Z,0.60
2018-01-04T05:31:19.252Z,0.68
2018-01-04T05:33:48.363Z,0.68
2018-01-04T05:36:17.185Z,0.70
2018-01-04T05:38:45.939Z,0.40
2018-01-04T05:41:14.811Z,0.60
2018-01-04T05:43:43.497Z,0.60
2018-01-04T05:46:12.621Z,1.00
2018-01-04T05:48:41.435Z,0.80
2018-01-04T05:51:10.504Z,0.60
2018-01-04T05:53:39.168Z,0.70
2018-01-04T05:56:07.806Z,0.62
2018-01-04T05:58:36.617Z,1.55
2018-01-04T06:01:05.224Z,0.90
2018-01-04T06:03:34.450Z,0.60
2018-01-04T06:06:04.215Z,0.73
2018-01-04T06:08:33.199Z,0.68
2018-01-04T06:11:02.165Z,0.57
2018-01-04T06:13:31.082Z,0.90
2018-01-04T06:15:59.764Z,0.88
2018-01-04T06:18:28.241Z,0.75
2018-01-04T06:20:56.908Z,0.75
2018-01-04T06:23:25.969Z,1.10
2018-01-04T06:25:55.490Z,0.70
2018-01-04T06:28:24.661Z,0.90
2018-01-04T06:30:52.784Z,0.70
2018-01-04T06:33:22.126Z,0.80
2018-01-04T06:35:51.405Z,0.88
2018-01-04T06:38:20.002Z,0.67
2018-01-04T06:40:48.525Z,0.80
2018-01-04T06:43:18.042Z,0.80
2018-01-04T06:45:47.039Z,0.80
2018-01-04T06:48:16.642Z,0.80
2018-01-04T06:50:45.724Z,0.97
2018-01-04T06:53:14.911Z,1.90
2018-01-04T06:55:45.139Z,0.95
2018-01-04T06:58:15.253Z,1.15
2018-01-04T07:00:44.411Z,1.00
2018-01-04T07:03:13.479Z,1.33
2018-01-04T07:05:42.662Z,0.95
2018-01-04T07:08:11.104Z,0.98
2018-01-04T07:10:39.814Z,1.60
2018-01-04T07:13:08.378Z,1.10
2018-01-04T07:15:36.898Z,1.00
2018-01-04T07:18:06.516Z,0.97
2018-01-04T07:20:35.415Z,1.13
2018-01-04T07:23:04.517Z,1.27
2018-01-04T07:25:34.086Z,0.60
2018-01-04T07:28:03.138Z,0.70
2018-01-04T07:30:32.291Z,1.23
2018-01-04T07:33:00.771Z,1.10
2018-01-04T07:35:29.675Z,0.83
2018-01-04T07:37:58.156Z,3.70
2018-01-04T07:40:27.072Z,1.50
2018-01-04T07:42:56.516Z,1.02
2018-01-04T07:45:25.035Z,1.00
2018-01-04T07:47:54.662Z,0.90
2018-01-04T07:50:23.902Z,1.05
2018-01-04T07:52:52.473Z,0.90
2018-01-04T07:55:20.958Z,1.47
2018-01-04T07:57:49.885Z,1.00
2018-01-04T08:00:18.456Z,0.93
2018-01-04T08:02:47.292Z,0.80
2018-01-04T08:05:16.364Z,1.10
2018-01-04T08:07:45.365Z,1.27
2018-01-04T08:10:14.050Z,0.90
2018-01-04T08:12:44.306Z,1.30
2018-01-04T08:15:12.854Z,0.90
2018-01-04T08:17:41.261Z,1.60
2018-01-04T08:20:10.272Z,1.03
2018-01-04T08:22:40.850Z,0.97
2018-01-04T08:25:09.530Z,0.90
2018-01-04T08:27:37.934Z,0.73
2018-01-04T08:30:06.547Z,1.03
2018-01-04T08:32:36.049Z,0.90
2018-01-04T08:35:04.545Z,2.10
2018-01-04T08:37:34.819Z,1.57
2018-01-04T08:40:03.530Z,1.30
2018-01-04T08:42:32.403Z,1.50
2018-01-04T08:45:00.558Z,1.60
2018-01-04T08:47:29.203Z,1.47
2018-01-04T08:49:58.271Z,1.60
2018-01-04T08:52:27.007Z,1.37
2018-01-04T08:54:55.259Z,1.67
2018-01-04T08:57:24.172Z,1.33
2018-01-04T08:59:52.346Z,1.77
2018-01-04T09:02:21.370Z,1.07
2018-01-04T09:04:50.308Z,1.53
2018-01-04T09:07:19.297Z,1.63
2018-01-04T09:09:48.685Z,1.93
2018-01-04T09:12:17.214Z,1.77
2018-01-04T09:14:45.703Z,2.42
2018-01-04T09:17:14.448Z,1.70
2018-01-04T09:19:44.549Z,1.83
2018-01-04T09:22:13.049Z,2.70
2018-01-04T09:24:41.929Z,3.17
2018-01-04T09:27:10.623Z,2.20
2018-01-04T09:29:39.545Z,2.20
2018-01-04T09:32:09.428Z,1.80
2018-01-04T09:34:38.012Z,2.87
2018-01-04T09:37:06.440Z,2.10
2018-01-04T09:39:35.815Z,2.70
2018-01-04T09:42:04.903Z,3.13
2018-01-04T09:44:33.539Z,2.67
2018-01-04T09:47:02.382Z,2.20
2018-01-04T09:49:30.517Z,2.30
2018-01-04T09:51:59.571Z,2.20
2018-01-04T09:54:29.000Z,2.67
2018-01-04T09:56:57.386Z,2.57
2018-01-04T09:59:26.035Z,2.67
2018-01-04T10:01:54.752Z,2.20
2018-01-04T10:04:23.300Z,2.00
2018-01-04T10:06:52.696Z,3.53
2018-01-04T10:09:23.451Z,3.33
2018-01-04T10:11:52.545Z,2.70
2018-01-04T10:14:20.756Z,2.13
2018-01-04T10:16:49.191Z,2.30
2018-01-04T10:19:17.655Z,2.33
2018-01-04T10:21:47.104Z,2.40
2018-01-04T10:24:15.328Z,2.20
2018-01-04T10:26:44.681Z,2.43
2018-01-04T10:29:13.107Z,2.13
2018-01-04T10:31:41.365Z,1.97
2018-01-04T10:34:10.786Z,2.30
2018-01-04T10:36:39.018Z,1.50
2018-01-04T10:39:07.654Z,1.57
2018-01-04T10:41:36.636Z,1.93
2018-01-04T10:44:05.338Z,1.67
2018-01-04T10:46:33.794Z,1.60
2018-01-04T10:49:02.532Z,1.60
2018-01-04T10:51:30.735Z,3.17
2018-01-04T10:53:59.737Z,2.60
2018-01-04T10:56:28.184Z,2.43
2018-01-04T10:58:56.884Z,2.53
2018-01-04T11:01:26.275Z,2.20
2018-01-04T11:03:54.837Z,2.20
2018-01-04T11:06:24.481Z,2.27
2018-01-04T11:08:53.034Z,2.23
2018-01-04T11:11:22.451Z,2.90
2018-01-04T11:13:52.216Z,1.67
2018-01-04T11:16:22.067Z,2.70
2018-01-04T11:18:50.263Z,2.30
2018-01-04T11:21:20.154Z,1.70
2018-01-04T11:23:49.525Z,1.77
2018-01-04T11:26:18.822Z,1.50
2018-01-04T11:28:48.310Z,1.17
2018-01-04T11:31:18.053Z,1.90
2018-01-04T11:33:46.795Z,1.07
2018-01-04T11:36:15.103Z,1.30
2018-01-04T11:38:44.314Z,1.83
2018-01-04T11:41:13.497Z,1.23
2018-01-04T11:43:42.702Z,1.73
2018-01-04T11:46:11.861Z,1.23
2018-01-04T11:48:40.052Z,1.37
2018-01-04T11:51:08.700Z,1.60
2018-01-04T11:53:38.353Z,1.43
2018-01-04T11:56:06.971Z,1.87
2018-01-04T11:58:36.080Z,1.43
2018-01-04T12:01:04.436Z,1.40
2018-01-04T12:03:33.325Z,1.73
2018-01-04T12:06:02.764Z,1.87
2018-01-04T12:08:31.960Z,2.47
2018-01-04T12:11:01.911Z,1.83
2018-01-04T12:13:30.453Z,2.03
2018-01-04T12:15:58.932Z,1.63
2018-01-04T12:18:27.933Z,2.33
2018-01-04T12:20:56.645Z,1.83
2018-01-04T12:23:25.654Z,2.03
2018-01-04T12:25:54.714Z,1.30
2018-01-04T12:28:23.779Z,2.03
2018-01-04T12:30:52.337Z,2.00
2018-01-04T12:33:21.279Z,2.00
2018-01-04T12:35:50.243Z,1.77
2018-01-04T12:38:19.884Z,2.07
2018-01-04T12:40:48.870Z,1.50
2018-01-04T12:43:18.469Z,1.70
2018-01-04T12:45:46.774Z,2.00
2018-01-04T12:48:16.178Z,1.70
2018-01-04T12:50:46.055Z,2.10
2018-01-04T12:53:16.242Z,2.07
2018-01-04T12:55:45.520Z,1.50
2018-01-04T12:58:14.597Z,2.13
2018-01-04T13:00:43.720Z,1.70
2018-01-04T13:03:11.970Z,2.57
2018-01-04T13:05:40.609Z,2.23
2018-01-04T13:08:09.810Z,1.90
2018-01-04T13:10:38.482Z,3.00
2018-01-04T13:13:08.849Z,2.90
2018-01-04T13:15:39.161Z,3.63
2018-01-04T13:18:07.996Z,2.53
2018-01-04T13:20:36.914Z,3.63
2018-01-04T13:23:05.554Z,3.10
2018-01-04T13:25:33.968Z,2.87
2018-01-04T13:28:02.830Z,3.30
2018-01-04T13:30:32.307Z,4.17
2018-01-04T13:33:02.336Z,4.60
2018-01-04T13:35:32.155Z,4.53
2018-01-04T13:38:02.155Z,4.17
2018-01-04T13:40:31.948Z,3.80
2018-01-04T13:43:01.688Z,3.83
2018-01-04T13:45:30.722Z,3.53
2018-01-04T13:47:59.950Z,4.50
2018-01-04T13:50:29.008Z,4.00
2018-01-04T13:52:57.809Z,3.77
2018-01-04T13:55:27.289Z,3.53
2018-01-04T13:57:56.473Z,3.80
2018-01-04T14:00:26.068Z,3.33
2018-01-04T14:02:55.265Z,3.80
2018-01-04T14:05:23.408Z,4.00
2018-01-04T14:07:52.846Z,2.90
2018-01-04T14:10:22.046Z,2.40
2018-01-04T14:12:50.790Z,2.70
2018-01-04T14:15:19.860Z,2.40
2018-01-04T14:17:48.124Z,2.70
2018-01-04T14:20:18.715Z,2.90
2018-01-04T14:22:47.256Z,2.87
2018-01-04T14:25:19.752Z,3.30
2018-01-04T14:27:49.230Z,3.00
2018-01-04T14:30:19.777Z,2.20
2018-01-04T14:32:48.593Z,2.57
2018-01-04T14:35:17.543Z,2.50
2018-01-04T14:37:45.854Z,2.37
2018-01-04T14:40:15.996Z,2.90
2018-01-04T14:42:44.114Z,2.40
2018-01-04T14:45:13.213Z,2.80
2018-01-04T14:47:42.350Z,2.40
2018-01-04T14:50:11.166Z,2.23
2018-01-04T14:52:40.102Z,2.47
2018-01-04T14:55:09.454Z,2.43
2018-01-04T14:57:38.584Z,2.60
2018-01-04T15:00:06.924Z,1.70
2018-01-04T15:02:35.461Z,1.83
2018-01-04T15:05:04.844Z,1.80
2018-01-04T15:07:33.340Z,1.70
2018-01-04T15:10:02.187Z,2.20
2018-01-04T15:12:32.523Z,2.20
2018-01-04T15:15:00.761Z,2.87
2018-01-04T15:17:29.496Z,3.27
2018-01-04T15:19:58.568Z,3.00
2018-01-04T15:22:28.059Z,2.73
2018-01-04T15:24:57.325Z,2.70
2018-01-04T15:27:26.836Z,2.90
2018-01-04T15:29:55.924Z,2.63
2018-01-04T15:32:25.459Z,2.67
2018-01-04T15:34:55.267Z,3.47
2018-01-04T15:37:24.296Z,3.10
2018-01-04T15:39:53.441Z,2.17
2018-01-04T15:42:22.375Z,2.03
2018-01-04T15:44:50.982Z,2.20
2018-01-04T15:47:19.289Z,1.33
2018-01-04T15:49:48.378Z,1.03
2018-01-04T15:52:17.825Z,1.10
2018-01-04T15:54:46.077Z,1.13
2018-01-04T15:57:16.878Z,1.03
2018-01-04T15:59:45.442Z,1.30
2018-01-04T16:02:13.770Z,1.53
2018-01-04T16:04:43.448Z,1.23
2018-01-04T16:07:11.890Z,1.50
2018-01-04T16:09:40.421Z,1.60
2018-01-04T16:12:09.395Z,0.80
2018-01-04T16:14:38.508Z,1.67
2018-01-04T16:17:07.011Z,1.00
2018-01-04T16:19:36.637Z,1.30
2018-01-04T16:22:05.960Z,1.10
2018-01-04T16:24:35.333Z,1.10
2018-01-04T16:27:04.610Z,1.17
2018-01-04T16:29:33.112Z,2.00
2018-01-04T16:32:01.990Z,1.07
2018-01-04T16:34:31.874Z,1.40
2018-01-04T16:37:01.352Z,2.93
2018-01-04T16:39:29.537Z,1.63
2018-01-04T16:41:58.947Z,1.00
2018-01-04T16:44:27.727Z,1.30
2018-01-04T16:46:56.292Z,1.30
2018-01-04T16:49:25.163Z,0.90
2018-01-04T16:51:53.811Z,1.10
2018-01-04T16:54:23.169Z,1.20
2018-01-04T16:56:52.486Z,1.13
2018-01-04T16:59:21.190Z,1.27
2018-01-04T17:01:50.702Z,1.17
2018-01-04T17:04:19.448Z,1.20
2018-01-04T17:06:49.021Z,1.50
2018-01-04T17:09:18.324Z,2.27
2018-01-04T17:11:47.409Z,1.00
2018-01-04T17:14:16.352Z,1.37
2018-01-04T17:16:45.326Z,1.13
2018-01-04T17:19:15.453Z,1.10
2018-01-04T17:21:43.619Z,0.83
2018-01-04T17:24:12.412Z,1.23
2018-01-04T17:26:41.287Z,0.80
2018-01-04T17:29:09.892Z,0.97
2018-01-04T17:31:38.780Z,1.30
2018-01-04T17:34:08.848Z,1.10
2018-01-04T17:36:37.644Z,1.00
2018-01-04T17:39:06.832Z,1.37
2018-01-04T17:41:37.386Z,1.00
2018-01-04T17:44:06.613Z,0.90
2018-01-04T17:46:35.945Z,1.40
2018-01-04T17:49:04.205Z,1.17
2018-01-04T17:51:33.370Z,0.90
2018-01-04T17:54:02.786Z,0.97
2018-01-04T17:56:31.876Z,0.87
2018-01-04T17:59:01.062Z,1.17
2018-01-04T18:01:30.834Z,1.10
2018-01-04T18:04:00.568Z,0.80
2018-01-04T18:06:29.914Z,0.90
2018-01-04T18:08:58.395Z,1.00
2018-01-04T18:11:27.389Z,0.90
2018-01-04T18:13:56.438Z,1.43
2018-01-04T18:16:25.771Z,1.20
2018-01-04T18:18:54.805Z,0.97
2018-01-04T18:21:23.170Z,0.80
2018-01-04T18:23:52.436Z,0.70
2018-01-04T18:26:22.240Z,0.77
2018-01-04T18:28:51.933Z,0.60
2018-01-04T18:31:20.627Z,0.80
2018-01-04T18:33:49.340Z,0.80
2018-01-04T18:36:19.448Z,0.57
2018-01-04T18:38:48.129Z,0.80
2018-01-04T18:41:17.126Z,0.90
2018-01-04T18:43:46.132Z,0.80
2018-01-04T18:46:15.892Z,0.83
2018-01-04T18:48:46.286Z,0.87
2018-01-04T18:51:15.252Z,0.80
2018-01-04T18:53:43.926Z,0.90
2018-01-04T18:56:12.732Z,0.80
2018-01-04T18:58:41.621Z,0.60
2018-01-04T19:01:10.868Z,0.83
2018-01-04T19:03:39.769Z,0.83
2018-01-04T19:06:08.206Z,1.17
2018-01-04T19:08:36.690Z,0.63
2018-01-04T19:11:05.498Z,1.00
2018-01-04T19:13:35.691Z,1.00
2018-01-04T19:16:04.694Z,0.90
2018-01-04T19:18:32.892Z,0.77
2018-01-04T19:21:03.243Z,0.60
2018-01-04T19:23:31.921Z,0.70
2018-01-04T19:26:00.532Z,0.70
2018-01-04T19:28:29.251Z,0.80
2018-01-04T19:30:58.767Z,0.70
2018-01-04T19:33:28.306Z,0.70
2018-01-04T19:35:57.052Z,0.60
2018-01-04T19:38:27.752Z,0.70
2018-01-04T19:40:56.073Z,0.73
2018-01-04T19:43:24.546Z,0.67
2018-01-04T19:45:53.327Z,0.70
2018-01-04T19:48:23.622Z,0.67
2018-01-04T19:50:52.652Z,0.60
2018-01-04T19:53:21.915Z,0.80
2018-01-04T19:55:52.062Z,0.80
2018-01-04T19:58:21.051Z,0.80
2018-01-04T20:00:50.216Z,0.80
2018-01-04T20:03:18.592Z,0.90
2018-01-04T20:05:47.595Z,0.60
2018-01-04T20:08:16.203Z,0.60
2018-01-04T20:10:45.377Z,1.00
2018-01-04T20:13:14.182Z,0.50
2018-01-04T20:15:44.017Z,0.60
2018-01-04T20:18:12.187Z,0.87
2018-01-04T20:20:41.175Z,0.70
2018-01-04T20:23:11.381Z,1.00
2018-01-04T20:25:40.643Z,0.50
2018-01-04T20:28:10.776Z,0.50
2018-01-04T20:30:38.940Z,0.50
2018-01-04T20:33:07.526Z,0.63
2018-01-04T20:35:36.527Z,0.60
2018-01-04T20:38:05.315Z,0.70
2018-01-04T20:40:35.187Z,0.63
2018-01-04T20:43:04.422Z,0.50
2018-01-04T20:45:33.813Z,0.50
2018-01-04T20:48:03.140Z,0.63
2018-01-04T20:50:32.768Z,0.40
2018-01-04T20:53:03.604Z,0.40
2018-01-04T20:55:33.816Z,0.50
2018-01-04T20:58:04.382Z,0.50
2018-01-04T21:00:33.488Z,0.40
2018-01-04T21:03:02.604Z,0.40
2018-01-04T21:05:31.822Z,0.73
2018-01-04T21:08:00.604Z,0.60
2018-01-04T21:10:29.969Z,0.80
2018-01-04T21:12:58.813Z,0.40
2018-01-04T21:15:28.723Z,0.57
2018-01-04T21:17:57.649Z,0.70
2018-01-04T21:20:26.483Z,0.50
2018-01-04T21:22:55.180Z,0.60
2018-01-04T21:25:23.471Z,0.53
2018-01-04T21:27:52.523Z,0.50
2018-01-04T21:30:21.443Z,0.50
2018-01-04T21:32:50.859Z,0.50
2018-01-04T21:35:19.197Z,0.50
2018-01-04T21:37:47.733Z,0.50
2018-01-04T21:40:16.601Z,0.40
2018-01-04T21:42:45.437Z,0.57
2018-01-04T21:45:15.025Z,0.50
2018-01-04T21:47:44.220Z,0.60
2018-01-04T21:50:13.103Z,0.40
2018-01-04T21:52:41.484Z,0.70
2018-01-04T21:55:10.084Z,0.60
2018-01-04T21:57:38.206Z,0.43
2018-01-04T22:00:06.971Z,0.60
2018-01-04T22:02:35.544Z,0.63
2018-01-04T22:05:04.185Z,0.70
2018-01-04T22:07:32.699Z,0.60
2018-01-04T22:10:01.913Z,0.67
2018-01-04T22:12:32.202Z,0.70
2018-01-04T22:15:01.424Z,0.70
2018-01-04T22:17:29.774Z,0.60
2018-01-04T22:19:58.188Z,0.50
2018-01-04T22:22:27.524Z,0.53
2018-01-04T22:24:55.984Z,0.40
2018-01-04T22:27:25.208Z,0.50
2018-01-04T22:29:53.919Z,0.60
2018-01-04T22:32:23.253Z,0.50
2018-01-04T22:34:52.116Z,0.50
2018-01-04T22:37:20.638Z,0.50
2018-01-04T22:39:48.751Z,0.47
2018-01-04T22:42:16.965Z,0.70
2018-01-04T22:44:45.080Z,0.50
2018-01-04T22:47:13.510Z,0.40
2018-01-04T22:49:41.759Z,0.50
2018-01-04T22:52:11.486Z,0.50
2018-01-04T22:54:40.776Z,0.67
2018-01-04T22:57:09.726Z,0.50
2018-01-04T22:59:38.209Z,0.30
2018-01-04T23:02:06.382Z,0.60
2018-01-04T23:04:36.073Z,0.40
2018-01-04T23:07:04.788Z,0.40
2018-01-04T23:09:33.709Z,0.50
2018-01-04T23:12:02.361Z,0.43
2018-01-04T23:14:32.245Z,0.40
2018-01-04T23:17:00.473Z,0.47
2018-01-04T23:19:28.830Z,0.50
2018-01-04T23:21:57.348Z,0.70
2018-01-04T23:24:26.475Z,0.60
2018-01-04T23:26:54.565Z,0.50
2018-01-04T23:29:24.101Z,0.40
2018-01-04T23:31:53.177Z,0.40
2018-01-04T23:34:22.418Z,0.50
2018-01-04T23:36:51.095Z,0.50
2018-01-04T23:39:19.711Z,0.60
2018-01-04T23:41:48.769Z,0.60
2018-01-04T23:44:17.097Z,0.47
2018-01-04T23:46:46.230Z,0.90
2018-01-04T23:49:15.728Z,0.60
2018-01-04T23:51:44.712Z,0.63
2018-01-04T23:54:13.652Z,0.70
2018-01-04T23:56:42.720Z,0.60
2018-01-04T23:59:11.048Z,0.63
